createdAt,value
2022-10-06T00:01:24.715Z,27.55
2022-10-06T00:03:54.229Z,27.62
2022-10-06T00:06:23.170Z,27.58
2022-10-06T00:08:52.347Z,27.59
2022-10-06T00:11:21.348Z,27.61
2022-10-06T00:13:50.569Z,27.52
2022-10-06T00:16:25.501Z,27.65
2022-10-06T00:18:54.753Z,27.60
2022-10-06T00:21:23.755Z,27.61
2022-10-06T00:23:52.941Z,27.60
2022-10-06T00:26:21.910Z,27.56
2022-10-06T00:28:51.242Z,27.61
2022-10-06T00:31:20.610Z,27.61
2022-10-06T00:33:51.544Z,27.64
2022-10-06T00:36:21.008Z,27.65
2022-10-06T00:38:51.610Z,27.56
2022-10-06T00:41:21.496Z,27.50
2022-10-06T00:43:54.649Z,27.67
2022-10-06T00:46:37.566Z,27.69
2022-10-06T00:49:15.910Z,27.68
2022-10-06T00:51:54.400Z,27.59
2022-10-06T00:54:24.137Z,27.50
2022-10-06T00:56:53.621Z,27.51
2022-10-06T00:59:24.410Z,27.46
2022-10-06T01:02:11.514Z,27.63
2022-10-06T01:04:51.040Z,27.50
2022-10-06T01:07:23.188Z,27.53
2022-10-06T01:09:57.764Z,27.57
2022-10-06T01:12:31.270Z,27.56
2022-10-06T01:15:02.378Z,27.56
2022-10-06T01:17:41.821Z,27.74
2022-10-06T01:20:16.836Z,27.66
2022-10-06T01:22:55.214Z,27.62
2022-10-06T01:25:26.367Z,27.66
2022-10-06T01:27:58.529Z,27.79
2022-10-06T01:30:47.494Z,27.89
2022-10-06T01:33:18.458Z,27.81
2022-10-06T01:35:51.805Z,27.89
2022-10-06T01:38:22.875Z,27.83
2022-10-06T01:40:58.403Z,27.89
2022-10-06T01:43:28.155Z,27.91
2022-10-06T01:45:59.822Z,27.94
2022-10-06T01:48:30.561Z,27.94
2022-10-06T01:51:01.245Z,27.96
2022-10-06T01:53:32.629Z,28.01
2022-10-06T01:56:02.458Z,28.01
2022-10-06T01:58:33.409Z,28.08
2022-10-06T02:01:10.962Z,28.19
2022-10-06T02:03:42.716Z,28.10
2022-10-06T02:06:12.774Z,28.08
2022-10-06T02:08:44.786Z,28.16
2022-10-06T02:11:15.649Z,28.18
2022-10-06T02:13:46.521Z,28.20
2022-10-06T02:16:17.279Z,28.22
2022-10-06T02:18:47.297Z,28.31
2022-10-06T02:21:21.498Z,28.37
2022-10-06T02:23:51.754Z,28.28
2022-10-06T02:26:22.113Z,28.43
2022-10-06T02:28:53.129Z,28.39
2022-10-06T02:31:26.518Z,28.52
2022-10-06T02:33:58.621Z,28.50
2022-10-06T02:36:28.459Z,28.47
2022-10-06T02:38:58.697Z,28.59
2022-10-06T02:41:28.270Z,28.56
2022-10-06T02:43:57.537Z,28.70
2022-10-06T02:46:27.975Z,28.69
2022-10-06T02:48:57.969Z,28.68
2022-10-06T02:51:28.377Z,28.76
2022-10-06T02:53:58.385Z,28.91
2022-10-06T02:56:28.376Z,29.00
2022-10-06T02:58:59.327Z,29.04
2022-10-06T03:01:32.144Z,29.13
2022-10-06T03:04:15.667Z,29.13
2022-10-06T03:06:46.015Z,29.09
2022-10-06T03:09:21.586Z,29.31
2022-10-06T03:11:54.169Z,29.42
2022-10-06T03:14:33.630Z,29.37
2022-10-06T03:17:03.646Z,29.19
2022-10-06T03:19:33.720Z,29.49
2022-10-06T03:22:03.375Z,29.55
2022-10-06T03:24:53.036Z,29.65
2022-10-06T03:27:24.233Z,29.52
2022-10-06T03:29:57.709Z,29.77
2022-10-06T03:32:29.608Z,29.88
2022-10-06T03:34:59.751Z,29.85
2022-10-06T03:37:30.697Z,30.05
2022-10-06T03:40:00.339Z,30.07
2022-10-06T03:42:29.749Z,30.03
2022-10-06T03:44:59.515Z,30.12
2022-10-06T03:47:32.078Z,30.34
2022-10-06T03:50:02.616Z,30.22
2022-10-06T03:52:32.561Z,30.26
2022-10-06T03:55:01.648Z,30.30
2022-10-06T03:57:30.814Z,30.46
2022-10-06T04:00:00.918Z,30.61
2022-10-06T04:02:30.361Z,30.68
2022-10-06T04:05:00.644Z,30.74
2022-10-06T04:07:31.068Z,30.87
2022-10-06T04:10:00.674Z,30.91
2022-10-06T04:12:29.669Z,30.84
2022-10-06T04:15:00.186Z,30.81
2022-10-06T04:17:30.321Z,31.01
2022-10-06T04:19:59.335Z,31.11
2022-10-06T04:22:28.636Z,31.27
2022-10-06T04:24:57.802Z,31.32
2022-10-06T04:27:29.938Z,31.39
2022-10-06T04:30:12.531Z,31.47
2022-10-06T04:32:42.577Z,31.46
2022-10-06T04:35:12.551Z,31.53
2022-10-06T04:37:42.196Z,31.68
2022-10-06T04:40:12.425Z,31.70
2022-10-06T04:42:42.208Z,31.82
2022-10-06T04:45:15.600Z,31.88
2022-10-06T04:47:45.538Z,32.01
2022-10-06T04:50:14.798Z,32.08
2022-10-06T04:53:04.493Z,31.91
2022-10-06T04:55:34.841Z,32.08
2022-10-06T04:58:05.471Z,32.29
2022-10-06T05:00:34.712Z,32.35
2022-10-06T05:03:04.136Z,32.44
2022-10-06T05:05:34.617Z,32.28
2022-10-06T05:08:03.870Z,32.51
2022-10-06T05:10:33.146Z,32.50
2022-10-06T05:13:05.827Z,32.62
2022-10-06T05:15:35.274Z,32.68
2022-10-06T05:18:05.128Z,32.66
2022-10-06T05:20:34.665Z,32.85
2022-10-06T05:23:09.161Z,32.84
2022-10-06T05:25:39.067Z,32.95
2022-10-06T05:28:10.032Z,32.92
2022-10-06T05:30:39.253Z,33.16
2022-10-06T05:33:09.005Z,33.23
2022-10-06T05:35:38.244Z,33.38
2022-10-06T05:38:07.647Z,33.34
2022-10-06T05:40:37.090Z,33.44
2022-10-06T05:43:06.102Z,33.50
2022-10-06T05:45:36.381Z,33.48
2022-10-06T05:48:05.835Z,33.55
2022-10-06T05:50:34.993Z,33.54
2022-10-06T05:53:04.686Z,33.57
2022-10-06T05:55:33.709Z,33.66
2022-10-06T05:58:02.951Z,33.62
2022-10-06T06:00:32.503Z,33.66
2022-10-06T06:03:03.249Z,33.80
2022-10-06T06:05:33.068Z,33.78
2022-10-06T06:08:02.167Z,33.89
2022-10-06T06:10:31.548Z,33.86
2022-10-06T06:13:00.717Z,33.96
2022-10-06T06:15:53.159Z,33.94
2022-10-06T06:18:22.486Z,34.00
2022-10-06T06:21:03.315Z,34.22
2022-10-06T06:23:43.868Z,34.30
2022-10-06T06:26:25.236Z,34.19
2022-10-06T06:28:55.792Z,34.13
2022-10-06T06:31:30.218Z,34.15
2022-10-06T06:34:02.492Z,34.25
2022-10-06T06:36:36.629Z,34.58
2022-10-06T06:39:18.670Z,34.50
2022-10-06T06:41:50.113Z,34.28
2022-10-06T06:44:51.552Z,34.33
2022-10-06T06:47:26.954Z,34.39
2022-10-06T06:50:00.276Z,34.50
2022-10-06T06:52:32.223Z,34.42
2022-10-06T06:55:02.386Z,34.41
2022-10-06T06:57:31.790Z,34.51
2022-10-06T07:00:03.978Z,34.53
2022-10-06T07:02:35.411Z,34.48
2022-10-06T07:05:06.239Z,34.42
2022-10-06T07:07:37.082Z,34.53
2022-10-06T07:10:06.721Z,34.60
2022-10-06T07:12:36.089Z,34.60
2022-10-06T07:15:25.693Z,34.72
2022-10-06T07:18:13.957Z,34.64
2022-10-06T07:21:01.378Z,34.73
2022-10-06T07:23:49.034Z,34.82
2022-10-06T07:26:21.542Z,34.80
2022-10-06T07:28:53.414Z,34.89
2022-10-06T07:31:23.709Z,34.74
2022-10-06T07:33:53.297Z,34.74
2022-10-06T07:36:23.477Z,34.79
2022-10-06T07:38:52.684Z,34.88
2022-10-06T07:41:22.777Z,34.88
2022-10-06T07:43:56.655Z,34.88
2022-10-06T07:46:28.902Z,34.92
2022-10-06T07:49:03.297Z,34.88
2022-10-06T07:51:33.022Z,34.80
2022-10-06T07:54:04.244Z,34.84
2022-10-06T07:56:52.505Z,34.94
2022-10-06T07:59:22.439Z,34.97
2022-10-06T08:01:53.520Z,34.83
2022-10-06T08:04:22.842Z,34.93
2022-10-06T08:06:52.517Z,34.97
2022-10-06T08:09:23.223Z,35.05
2022-10-06T08:11:53.552Z,35.07
2022-10-06T08:14:23.400Z,35.02
2022-10-06T08:16:54.220Z,35.11
2022-10-06T08:19:25.715Z,35.15
2022-10-06T08:21:55.726Z,35.09
2022-10-06T08:24:25.232Z,35.09
2022-10-06T08:26:58.449Z,35.11
2022-10-06T08:29:28.221Z,35.01
2022-10-06T08:32:00.509Z,35.12
2022-10-06T08:34:29.813Z,35.14
2022-10-06T08:37:19.222Z,35.22
2022-10-06T08:39:53.045Z,35.36
2022-10-06T08:42:43.281Z,35.42
2022-10-06T08:45:26.054Z,35.30
2022-10-06T08:48:11.185Z,35.19
2022-10-06T08:51:26.478Z,35.21
2022-10-06T08:54:37.060Z,35.25
2022-10-06T08:57:18.295Z,35.27
2022-10-06T08:59:50.498Z,35.17
2022-10-06T09:02:30.821Z,35.20
2022-10-06T09:05:04.565Z,35.15
2022-10-06T09:08:27.739Z,35.26
2022-10-06T09:11:08.317Z,35.25
2022-10-06T09:14:20.848Z,35.20
2022-10-06T09:16:58.263Z,35.05
2022-10-06T09:19:41.306Z,35.03
2022-10-06T09:22:21.207Z,35.02
2022-10-06T09:24:56.913Z,34.95
2022-10-06T09:27:34.513Z,35.02
2022-10-06T09:30:05.931Z,34.94
2022-10-06T09:32:37.120Z,34.92
2022-10-06T09:35:22.870Z,34.95
2022-10-06T09:37:58.867Z,34.90
2022-10-06T09:40:53.288Z,34.77
2022-10-06T09:43:30.738Z,34.80
2022-10-06T09:46:22.236Z,34.89
2022-10-06T09:49:08.731Z,34.80
2022-10-06T09:51:38.656Z,34.69
2022-10-06T09:54:12.385Z,34.72
2022-10-06T09:56:44.325Z,34.62
2022-10-06T09:59:40.002Z,34.74
2022-10-06T10:02:28.966Z,34.66
2022-10-06T10:04:59.413Z,34.59
2022-10-06T10:07:31.903Z,34.59
2022-10-06T10:10:19.564Z,34.61
2022-10-06T10:13:00.844Z,34.49
2022-10-06T10:15:34.112Z,34.44
2022-10-06T10:18:06.610Z,34.45
2022-10-06T10:20:53.430Z,34.52
2022-10-06T10:23:40.050Z,34.51
2022-10-06T10:26:29.905Z,34.47
2022-10-06T10:29:08.235Z,34.47
2022-10-06T10:31:40.843Z,34.41
2022-10-06T10:34:36.883Z,34.45
2022-10-06T10:37:13.170Z,34.29
2022-10-06T10:39:45.531Z,34.26
2022-10-06T10:42:31.931Z,34.33
2022-10-06T10:45:05.499Z,34.19
2022-10-06T10:47:43.897Z,34.21
2022-10-06T10:50:21.691Z,34.19
2022-10-06T10:52:55.090Z,34.03
2022-10-06T10:55:38.452Z,34.06
2022-10-06T10:58:29.744Z,34.08
2022-10-06T11:01:26.846Z,34.01
2022-10-06T11:04:00.243Z,33.90
2022-10-06T11:07:24.490Z,34.01
2022-10-06T11:10:31.546Z,33.96
2022-10-06T11:13:29.037Z,33.89
2022-10-06T11:16:27.037Z,33.84
2022-10-06T11:19:16.067Z,33.77
2022-10-06T11:22:12.530Z,33.78
2022-10-06T11:25:22.584Z,33.73
2022-10-06T11:28:11.032Z,33.73
2022-10-06T11:30:59.525Z,33.68
2022-10-06T11:33:44.283Z,33.65
2022-10-06T11:36:23.851Z,33.61
2022-10-06T11:39:05.515Z,33.60
2022-10-06T11:41:44.492Z,33.56
2022-10-06T11:44:33.543Z,33.59
2022-10-06T11:47:15.947Z,33.49
2022-10-06T11:49:56.894Z,33.46
2022-10-06T11:52:27.963Z,33.29
2022-10-06T11:55:19.433Z,33.40
2022-10-06T11:58:29.873Z,33.34
2022-10-06T12:00:57.894Z,33.15
2022-10-06T12:03:32.885Z,33.26
2022-10-06T12:06:04.259Z,33.12
2022-10-06T12:08:41.881Z,33.22
2022-10-06T12:11:39.653Z,33.12
2022-10-06T12:16:07.002Z,33.07
2022-10-06T12:17:30.633Z,32.87
2022-10-06T12:20:23.915Z,32.86
2022-10-06T12:22:55.200Z,32.80
2022-10-06T12:25:42.540Z,32.79
2022-10-06T12:28:33.266Z,32.79
2022-10-06T12:31:08.118Z,32.75
2022-10-06T12:33:42.665Z,32.61
2022-10-06T12:36:33.080Z,32.71
2022-10-06T12:39:08.286Z,32.51
2022-10-06T12:41:59.569Z,32.53
2022-10-06T12:44:32.007Z,32.40
2022-10-06T12:47:05.183Z,32.50
2022-10-06T12:49:54.954Z,32.36
2022-10-06T12:52:49.170Z,32.40
2022-10-06T12:55:42.779Z,32.33
2022-10-06T12:58:27.528Z,32.31
2022-10-06T13:01:02.610Z,32.28
2022-10-06T13:03:32.240Z,32.17
2022-10-06T13:06:04.441Z,32.18
2022-10-06T13:08:36.983Z,32.09
2022-10-06T13:11:23.616Z,32.17
2022-10-06T13:13:59.581Z,32.12
2022-10-06T13:16:35.278Z,32.14
2022-10-06T13:19:07.560Z,31.98
2022-10-06T13:21:37.132Z,31.86
2022-10-06T13:24:07.150Z,31.92
2022-10-06T13:26:36.418Z,31.77
2022-10-06T13:29:06.329Z,31.72
2022-10-06T13:31:38.932Z,31.71
2022-10-06T13:34:11.765Z,31.64
2022-10-06T13:36:43.582Z,31.69
2022-10-06T13:39:21.933Z,31.74
2022-10-06T13:41:52.643Z,31.68
2022-10-06T13:44:43.160Z,31.73
2022-10-06T13:47:25.597Z,31.72
2022-10-06T13:50:08.840Z,31.67
2022-10-06T13:52:47.605Z,31.57
2022-10-06T13:55:23.619Z,31.64
2022-10-06T13:58:05.142Z,31.61
2022-10-06T14:00:53.750Z,31.57
2022-10-06T14:03:26.424Z,31.48
2022-10-06T14:06:14.828Z,31.59
2022-10-06T14:08:51.433Z,31.53
2022-10-06T14:11:27.519Z,31.51
2022-10-06T14:14:07.339Z,31.51
2022-10-06T14:16:36.518Z,31.36
2022-10-06T14:19:07.200Z,31.26
2022-10-06T14:21:42.701Z,31.25
2022-10-06T14:24:17.903Z,31.27
2022-10-06T14:26:50.757Z,31.31
2022-10-06T14:29:20.884Z,31.16
2022-10-06T14:31:50.883Z,31.08
2022-10-06T14:34:23.017Z,31.15
2022-10-06T14:36:52.710Z,31.25
2022-10-06T14:39:21.613Z,31.01
2022-10-06T14:41:51.242Z,30.94
2022-10-06T14:44:20.273Z,30.96
2022-10-06T14:46:50.187Z,31.01
2022-10-06T14:49:19.711Z,30.78
2022-10-06T14:51:48.793Z,30.72
2022-10-06T14:54:17.831Z,30.72
2022-10-06T14:56:46.992Z,30.72
2022-10-06T14:59:18.991Z,30.78
2022-10-06T15:01:49.789Z,30.69
2022-10-06T15:04:21.172Z,30.75
2022-10-06T15:07:08.821Z,30.72
2022-10-06T15:09:37.912Z,30.74
2022-10-06T15:12:07.376Z,30.71
2022-10-06T15:14:40.745Z,30.58
2022-10-06T15:17:09.931Z,30.53
2022-10-06T15:19:38.840Z,30.55
2022-10-06T15:22:09.940Z,30.57
2022-10-06T15:24:39.065Z,30.60
2022-10-06T15:27:27.071Z,30.44
2022-10-06T15:29:58.393Z,30.38
2022-10-06T15:32:27.628Z,30.38
2022-10-06T15:34:56.572Z,30.42
2022-10-06T15:37:25.734Z,30.44
2022-10-06T15:39:54.780Z,30.44
2022-10-06T15:42:25.735Z,30.40
2022-10-06T15:44:57.098Z,30.31
2022-10-06T15:47:26.342Z,30.31
2022-10-06T15:49:55.157Z,30.25
2022-10-06T15:52:24.487Z,30.25
2022-10-06T15:54:53.434Z,30.25
2022-10-06T15:57:23.136Z,30.16
2022-10-06T15:59:52.652Z,30.22
2022-10-06T16:02:23.285Z,30.26
2022-10-06T16:05:14.198Z,30.30
2022-10-06T16:07:43.222Z,30.19
2022-10-06T16:10:13.208Z,30.20
2022-10-06T16:12:49.160Z,30.16
2022-10-06T16:15:18.871Z,30.09
2022-10-06T16:17:53.897Z,30.00
2022-10-06T16:20:23.304Z,30.02
2022-10-06T16:22:53.250Z,30.04
2022-10-06T16:25:22.988Z,30.01
2022-10-06T16:27:55.531Z,30.04
2022-10-06T16:30:25.140Z,30.02
2022-10-06T16:32:56.509Z,30.01
2022-10-06T16:35:28.190Z,30.02
2022-10-06T16:37:59.177Z,30.00
2022-10-06T16:40:33.117Z,29.89
2022-10-06T16:43:03.139Z,29.89
2022-10-06T16:45:40.622Z,29.92
2022-10-06T16:48:15.430Z,29.98
2022-10-06T16:50:45.064Z,29.97
2022-10-06T16:53:16.990Z,29.95
2022-10-06T16:55:46.862Z,29.96
2022-10-06T16:58:18.200Z,30.11
2022-10-06T17:00:48.196Z,30.09
2022-10-06T17:03:17.638Z,30.02
2022-10-06T17:05:51.214Z,30.05
2022-10-06T17:08:26.391Z,30.08
2022-10-06T17:11:25.978Z,30.05
2022-10-06T17:13:59.817Z,29.84
2022-10-06T17:16:34.369Z,29.84
2022-10-06T17:19:05.672Z,29.69
2022-10-06T17:21:58.246Z,29.70
2022-10-06T17:24:29.176Z,29.65
2022-10-06T17:26:59.715Z,29.72
2022-10-06T17:29:29.405Z,29.70
2022-10-06T17:32:07.319Z,29.71
2022-10-06T17:34:42.285Z,29.67
2022-10-06T17:37:14.641Z,29.64
2022-10-06T17:39:46.987Z,29.54
2022-10-06T17:42:17.360Z,29.56
2022-10-06T17:44:46.581Z,29.44
2022-10-06T17:47:15.455Z,29.47
2022-10-06T17:49:47.676Z,29.44
2022-10-06T17:52:19.540Z,29.36
2022-10-06T17:54:52.187Z,29.40
2022-10-06T17:57:21.275Z,29.41
2022-10-06T17:59:50.212Z,29.42
2022-10-06T18:02:19.428Z,29.39
2022-10-06T18:04:50.915Z,29.37
2022-10-06T18:07:20.380Z,29.39
2022-10-06T18:10:09.078Z,29.31
2022-10-06T18:12:39.637Z,29.41
2022-10-06T18:15:13.368Z,29.36
2022-10-06T18:17:43.351Z,29.34
2022-10-06T18:20:13.419Z,29.40
2022-10-06T18:22:43.638Z,29.26
2022-10-06T18:25:17.639Z,29.11
2022-10-06T18:27:49.455Z,29.21
2022-10-06T18:30:18.985Z,29.23
2022-10-06T18:38:28.172Z,29.21
2022-10-06T18:40:58.956Z,29.21
2022-10-06T18:43:28.362Z,29.18
2022-10-06T18:46:15.632Z,29.21
2022-10-06T18:48:56.866Z,29.22
2022-10-06T18:51:38.015Z,29.38
2022-10-06T18:54:13.383Z,29.33
2022-10-06T18:56:44.580Z,29.33
2022-10-06T18:59:14.942Z,29.21
2022-10-06T19:01:46.998Z,29.30
2022-10-06T19:04:18.947Z,29.35
2022-10-06T19:06:50.887Z,29.21
2022-10-06T19:09:22.149Z,29.17
2022-10-06T19:11:54.665Z,29.24
2022-10-06T19:14:37.372Z,29.20
2022-10-06T19:17:15.010Z,29.18
2022-10-06T19:19:56.279Z,29.14
2022-10-06T19:22:28.570Z,29.10
2022-10-06T19:24:57.685Z,29.12
2022-10-06T19:27:27.176Z,29.01
2022-10-06T19:29:57.640Z,29.11
2022-10-06T19:32:33.089Z,29.13
2022-10-06T19:35:05.178Z,29.13
2022-10-06T19:37:37.021Z,29.06
2022-10-06T19:40:09.434Z,29.00
2022-10-06T19:42:48.881Z,28.97
2022-10-06T19:45:20.173Z,28.87
2022-10-06T19:47:49.277Z,28.93
2022-10-06T19:50:18.638Z,28.90
2022-10-06T19:52:48.044Z,28.94
2022-10-06T19:55:16.932Z,28.93
2022-10-06T19:57:46.660Z,28.85
2022-10-06T20:00:17.333Z,28.83
2022-10-06T20:02:49.063Z,28.89
2022-10-06T20:05:19.240Z,28.90
2022-10-06T20:07:51.450Z,28.94
2022-10-06T20:10:21.171Z,28.92
2022-10-06T20:12:52.075Z,28.83
2022-10-06T20:15:23.818Z,28.81
2022-10-06T20:17:53.076Z,28.73
2022-10-06T20:20:22.001Z,28.74
2022-10-06T20:22:51.969Z,28.77
2022-10-06T20:25:21.347Z,28.72
2022-10-06T20:27:51.480Z,28.77
2022-10-06T20:30:20.882Z,28.73
2022-10-06T20:32:49.831Z,28.68
2022-10-06T20:35:22.399Z,28.81
2022-10-06T20:37:51.659Z,28.67
2022-10-06T20:40:39.071Z,28.72
2022-10-06T20:43:09.153Z,28.68
2022-10-06T20:45:38.183Z,28.64
2022-10-06T20:48:07.213Z,28.59
2022-10-06T20:50:36.054Z,28.55
2022-10-06T20:53:05.344Z,28.56
2022-10-06T20:55:34.268Z,28.69
2022-10-06T20:58:04.680Z,28.67
2022-10-06T21:00:33.862Z,28.80
2022-10-06T21:03:04.150Z,28.72
2022-10-06T21:05:33.980Z,28.72
2022-10-06T21:08:02.927Z,28.70
2022-10-06T21:10:35.234Z,28.63
2022-10-06T21:13:04.439Z,28.62
2022-10-06T21:15:33.441Z,28.57
2022-10-06T21:18:04.397Z,28.63
2022-10-06T21:20:41.858Z,28.51
2022-10-06T21:23:14.422Z,28.52
2022-10-06T21:25:43.362Z,28.47
2022-10-06T21:28:12.648Z,28.55
2022-10-06T21:30:42.418Z,28.27
2022-10-06T21:33:11.694Z,28.26
2022-10-06T21:35:41.100Z,28.28
2022-10-06T21:38:13.715Z,28.38
2022-10-06T21:40:43.045Z,28.21
2022-10-06T21:43:12.031Z,28.25
2022-10-06T21:45:41.460Z,28.22
2022-10-06T21:48:11.229Z,28.18
2022-10-06T21:50:40.262Z,28.17
2022-10-06T21:53:09.457Z,28.16
2022-10-06T21:55:38.605Z,28.16
2022-10-06T21:58:07.516Z,28.25
2022-10-06T22:00:36.802Z,28.16
2022-10-06T22:03:07.523Z,28.23
2022-10-06T22:05:36.778Z,28.35
2022-10-06T22:08:05.753Z,28.23
2022-10-06T22:10:34.811Z,28.21
2022-10-06T22:13:03.718Z,28.16
2022-10-06T22:15:32.890Z,28.26
2022-10-06T22:18:01.810Z,28.20
2022-10-06T22:20:32.991Z,28.25
2022-10-06T22:23:04.887Z,28.20
2022-10-06T22:25:34.340Z,28.28
2022-10-06T22:28:03.479Z,28.19
2022-10-06T22:30:32.798Z,28.20
2022-10-06T22:33:02.188Z,28.20
2022-10-06T22:35:31.326Z,28.21
2022-10-06T22:38:00.301Z,28.25
2022-10-06T22:40:29.567Z,28.20
2022-10-06T22:42:58.497Z,28.26
2022-10-06T22:45:27.665Z,28.23
2022-10-06T22:47:57.000Z,28.18
2022-10-06T22:50:26.255Z,28.17
2022-10-06T22:52:55.206Z,28.04
2022-10-06T22:55:24.644Z,28.13
2022-10-06T22:57:54.501Z,28.00
2022-10-06T23:00:23.888Z,28.09
2022-10-06T23:02:53.003Z,28.14
2022-10-06T23:05:23.034Z,28.14
2022-10-06T23:07:52.474Z,28.07
2022-10-06T23:10:23.413Z,28.14
2022-10-06T23:12:57.109Z,28.26
2022-10-06T23:15:27.567Z,28.07
2022-10-06T23:17:57.176Z,28.09
2022-10-06T23:20:26.219Z,28.15
2022-10-06T23:22:58.102Z,28.09
2022-10-06T23:25:27.874Z,27.91
2022-10-06T23:27:56.824Z,27.88
2022-10-06T23:30:26.382Z,27.84
2022-10-06T23:32:55.312Z,27.78
2022-10-06T23:35:24.971Z,27.70
2022-10-06T23:37:54.293Z,27.76
2022-10-06T23:40:23.492Z,27.65
2022-10-06T23:42:52.429Z,27.74
2022-10-06T23:45:22.345Z,27.83
2022-10-06T23:47:51.282Z,27.78
2022-10-06T23:50:20.502Z,27.71
2022-10-06T23:52:49.532Z,27.62
2022-10-06T23:55:18.752Z,27.70
2022-10-06T23:57:47.714Z,27.73
